Time;durP1;ratioP1;P1;durP2;ratioP2;P2;SDS_P1;SDS_P2;PMS_P1;PMS_P2;Temp;Humidity;BMP_temperature;BMP_pressure;BME280_temperature;BME280_humidity;BME280_pressure;Samples;Min_cycle;Max_cycle;Signal;HPM_P1;HPM_P2
2023/03/04 00:01:26;;;;;;;12.48;7.65;;;;;;;4.68;41.88;102146.03;5062919;28;20052;-76
2023/03/04 00:03:54;;;;;;;12.70;7.80;;;;;;;4.68;41.92;102143.31;5052029;28;20229;-76
2023/03/04 00:06:22;;;;;;;11.25;7.70;;;;;;;4.69;41.69;102144.19;5035041;28;20033;-76
2023/03/04 00:08:50;;;;;;;10.93;7.50;;;;;;;4.71;41.65;102145.03;5053397;28;20048;-76
2023/03/04 00:11:18;;;;;;;10.07;5.63;;;;;;;4.70;41.66;102152.28;5040494;28;20045;-76
2023/03/04 00:13:47;;;;;;;8.30;5.63;;;;;;;4.73;41.66;102143.97;5058041;28;20041;-76
2023/03/04 00:16:16;;;;;;;9.40;5.88;;;;;;;4.72;41.57;102150.34;5043356;28;20400;-76
2023/03/04 00:18:44;;;;;;;10.70;5.57;;;;;;;4.73;41.61;102143.97;5040006;28;20143;-76
2023/03/04 00:21:12;;;;;;;10.27;6.13;;;;;;;4.74;41.51;102144.88;5050927;28;20048;-76
2023/03/04 00:23:40;;;;;;;10.02;5.95;;;;;;;4.74;41.49;102148.47;5050864;28;20495;-76
2023/03/04 00:26:08;;;;;;;8.20;5.53;;;;;;;4.74;41.39;102148.47;5051691;28;20136;-76
2023/03/04 00:28:37;;;;;;;9.50;5.68;;;;;;;4.74;41.48;102145.75;5057652;28;20041;-76
2023/03/04 00:31:06;;;;;;;9.90;5.78;;;;;;;4.77;41.48;102142.91;5051674;28;20462;-77
2023/03/04 00:33:35;;;;;;;8.00;4.82;;;;;;;4.77;41.53;102139.31;5051124;28;20041;-77
2023/03/04 00:36:04;;;;;;;8.18;4.80;;;;;;;4.78;41.27;102143.81;5051741;28;20043;-76
2023/03/04 00:38:32;;;;;;;9.80;4.63;;;;;;;4.78;41.30;102131.13;5033542;28;20045;-76
2023/03/04 00:41:02;;;;;;;8.65;4.80;;;;;;;4.79;41.38;102137.44;5046320;28;20121;-77
2023/03/04 00:43:31;;;;;;;5.95;3.90;;;;;;;4.78;41.33;102130.25;5042839;28;20056;-76
2023/03/04 00:45:59;;;;;;;8.45;4.55;;;;;;;4.79;41.35;102123.88;5060951;28;20037;-76
2023/03/04 00:48:29;;;;;;;8.30;3.92;;;;;;;4.81;41.28;102127.38;5058977;28;20048;-76
2023/03/04 00:50:56;;;;;;;8.25;3.70;;;;;;;4.80;41.25;102128.34;5046981;28;20386;-76
2023/03/04 00:53:24;;;;;;;6.50;3.53;;;;;;;4.81;41.14;102124.66;5038433;28;20053;-76
2023/03/04 00:55:52;;;;;;;7.35;3.55;;;;;;;4.81;41.14;102124.66;5038277;28;20527;-76
2023/03/04 00:58:20;;;;;;;7.47;3.95;;;;;;;4.81;41.20;102120.13;5034872;28;20544;-76
2023/03/04 01:00:48;;;;;;;10.90;4.05;;;;;;;4.81;41.38;102117.41;5049925;28;20052;-76
2023/03/04 01:03:16;;;;;;;8.45;3.83;;;;;;;4.82;41.16;102116.47;5032712;28;20080;-76
2023/03/04 01:05:45;;;;;;;8.00;3.53;;;;;;;4.82;41.13;102116.47;5036002;28;20520;-76
2023/03/04 01:08:13;;;;;;;6.35;3.45;;;;;;;4.83;41.09;102114.63;5037288;28;20049;-76
2023/03/04 01:10:41;;;;;;;8.30;3.63;;;;;;;4.84;41.05;102119.13;5046998;28;20052;-77
2023/03/04 01:13:09;;;;;;;8.05;3.72;;;;;;;4.84;41.14;102119.13;5030125;28;20054;-76
2023/03/04 01:15:36;;;;;;;6.03;3.40;;;;;;;4.84;41.15;102116.41;5022966;28;20421;-76
2023/03/04 01:18:05;;;;;;;7.57;3.70;;;;;;;4.84;41.22;102109.16;5050967;28;20043;-77
2023/03/04 01:20:33;;;;;;;7.13;3.60;;;;;;;4.85;41.18;102110.03;5049333;28;20460;-76
2023/03/04 01:23:04;;;;;;;7.22;3.70;;;;;;;4.86;41.12;102109.09;5032458;28;20526;-76
2023/03/04 01:25:33;;;;;;;5.15;3.20;;;;;;;4.85;40.92;102102.78;5024526;28;20060;-76
2023/03/04 01:28:01;;;;;;;6.30;3.53;;;;;;;4.84;41.08;102108.28;5031951;28;20068;-76
2023/03/04 01:30:29;;;;;;;5.80;2.63;;;;;;;4.85;41.11;102108.22;5049648;28;20092;-76
2023/03/04 01:32:57;;;;;;;6.75;2.80;;;;;;;4.85;41.29;102101.91;5045494;28;20057;-76
2023/03/04 01:35:26;;;;;;;6.55;3.15;;;;;;;4.84;41.13;102106.44;5049640;28;20052;-76
2023/03/04 01:37:54;;;;;;;9.48;3.72;;;;;;;4.83;41.09;102101.06;5033595;28;20100;-76
2023/03/04 01:40:23;;;;;;;6.00;2.80;;;;;;;4.85;40.88;102099.19;5044365;28;20045;-76
2023/03/04 01:42:51;;;;;;;5.72;2.92;;;;;;;4.84;41.09;102094.72;5038078;28;20544;-76
2023/03/04 01:45:20;;;;;;;5.80;2.95;;;;;;;4.84;41.12;102086.56;5031204;28;20153;-76
2023/03/04 01:47:50;;;;;;;6.88;2.63;;;;;;;4.85;40.88;102093.75;5029317;28;20040;-77
2023/03/04 01:50:22;;;;;;;7.70;2.95;;;;;;;4.83;41.06;102082.97;5028990;28;20041;-76
2023/03/04 01:52:50;;;;;;;6.20;3.15;;;;;;;4.80;41.23;102083.09;5050937;28;20265;-77
2023/03/04 01:55:20;;;;;;;6.25;2.75;;;;;;;4.84;41.03;102087.47;5033037;28;20052;-77
2023/03/04 01:57:51;;;;;;;7.53;2.80;;;;;;;4.85;41.19;102086.50;5040352;28;20045;-76
2023/03/04 02:00:26;;;;;;;7.28;2.80;;;;;;;4.86;41.13;102084.69;5036931;28;20398;-76
2023/03/04 02:02:57;;;;;;;5.70;2.70;;;;;;;4.87;41.08;102078.31;5039175;28;20045;-77
2023/03/04 02:05:27;;;;;;;7.00;2.65;;;;;;;4.87;41.11;102075.59;5036984;28;20536;-77
2023/03/04 02:07:56;;;;;;;5.30;2.45;;;;;;;4.87;41.11;102073.78;5036958;28;20041;-76
2023/03/04 02:10:24;;;;;;;7.00;2.58;;;;;;;4.87;41.02;102070.16;5025617;28;21043;-76
2023/03/04 02:12:54;;;;;;;8.65;3.03;;;;;;;4.87;41.08;102073.78;5026575;28;20072;-76
2023/03/04 02:15:23;;;;;;;9.32;2.90;;;;;;;4.88;41.04;102074.66;5030405;28;20041;-76
2023/03/04 02:17:52;;;;;;;6.55;2.78;;;;;;;4.87;41.09;102068.34;5047207;28;20090;-76
2023/03/04 02:20:30;;;;;;;6.82;2.80;;;;;;;4.90;41.11;102068.19;5028698;28;20045;-76
2023/03/04 02:23:03;;;;;;;6.70;2.75;;;;;;;4.89;41.17;102074.56;5056945;28;20044;-77
2023/03/04 02:25:39;;;;;;;7.97;2.65;;;;;;;4.90;41.07;102067.31;5034096;28;20052;-76
2023/03/04 02:28:08;;;;;;;6.50;3.13;;;;;;;4.89;41.03;102063.72;5034549;28;20456;-76
2023/03/04 02:30:36;;;;;;;8.15;3.05;;;;;;;4.89;41.08;102069.13;5040886;28;20048;-76
2023/03/04 02:33:05;;;;;;;7.40;3.05;;;;;;;4.89;40.93;102062.81;5025181;28;20040;-76
2023/03/04 02:35:33;;;;;;;7.65;3.22;;;;;;;4.91;41.00;102063.66;5030295;28;20040;-75
2023/03/04 02:38:01;;;;;;;5.63;2.80;;;;;;;4.90;41.01;102051.91;5036987;28;20045;-75
2023/03/04 02:40:33;;;;;;;5.93;2.58;;;;;;;4.92;41.08;102057.28;5028178;28;20120;-75
2023/03/04 02:43:01;;;;;;;10.55;3.35;;;;;;;4.90;40.86;102059.16;5024816;28;20489;-77
2023/03/04 02:45:41;;;;;;;8.57;2.80;;;;;;;4.94;41.14;102058.09;5031164;28;20282;-77
2023/03/04 02:48:10;;;;;;;8.40;3.33;;;;;;;4.92;41.01;102051.84;5050900;28;20047;-77
2023/03/04 02:50:42;;;;;;;8.25;2.83;;;;;;;4.93;41.14;102051.78;5018543;28;20045;-77
2023/03/04 02:53:11;;;;;;;6.82;2.47;;;;;;;4.92;41.20;102058.16;5049329;28;20079;-75
2023/03/04 02:55:39;;;;;;;8.02;2.55;;;;;;;4.92;40.99;102050.03;5031102;28;20132;-77
2023/03/04 02:58:06;;;;;;;7.88;2.60;;;;;;;4.94;41.00;102049.94;5032558;28;20049;-75
2023/03/04 03:00:36;;;;;;;6.85;2.60;;;;;;;4.95;41.08;102046.28;5032533;28;20049;-77
2023/03/04 03:03:07;;;;;;;6.50;2.45;;;;;;;4.95;41.05;102043.59;5033250;28;20087;-75
2023/03/04 03:05:36;;;;;;;7.72;2.50;;;;;;;4.96;41.01;102039.03;5032058;28;20041;-76
2023/03/04 03:08:06;;;;;;;9.55;2.85;;;;;;;4.95;40.79;102040.88;5031384;28;20045;-75
2023/03/04 03:10:34;;;;;;;7.10;2.25;;;;;;;4.95;41.07;102043.59;5047432;28;20516;-75
2023/03/04 03:13:03;;;;;;;8.10;2.67;;;;;;;4.95;41.15;102040.00;5038541;28;20280;-76
2023/03/04 03:15:32;;;;;;;6.95;2.70;;;;;;;4.97;41.08;102044.38;5038444;28;20057;-76
2023/03/04 03:18:00;;;;;;;9.18;3.30;;;;;;;4.96;41.13;102037.22;5037212;28;20033;-75
2023/03/04 03:20:29;;;;;;;10.77;2.90;;;;;;;4.97;41.29;102036.22;5047803;28;20048;-75
2023/03/04 03:22:57;;;;;;;5.20;2.33;;;;;;;4.96;41.06;102031.78;5031651;28;20078;-75
2023/03/04 03:25:25;;;;;;;7.53;2.80;;;;;;;4.97;41.03;102036.22;5031374;28;20590;-75
2023/03/04 03:27:53;;;;;;;8.93;2.90;;;;;;;4.98;41.11;102028.97;5031921;28;20104;-76
2023/03/04 03:30:22;;;;;;;8.07;3.22;;;;;;;4.97;41.15;102022.66;5030168;28;20040;-76
2023/03/04 03:32:50;;;;;;;9.43;3.15;;;;;;;4.98;41.18;102031.69;5050034;28;20500;-76
2023/03/04 03:35:18;;;;;;;10.98;3.90;;;;;;;4.98;41.36;102032.56;5034279;28;20053;-76
2023/03/04 03:37:48;;;;;;;9.25;3.33;;;;;;;4.99;41.13;102025.31;5058825;28;20041;-76
2023/03/04 03:40:16;;;;;;;10.32;3.85;;;;;;;4.99;41.06;102022.59;5030232;28;20080;-75
2023/03/04 03:42:44;;;;;;;8.30;3.30;;;;;;;4.99;40.96;102030.75;5032484;28;20050;-76
2023/03/04 03:45:12;;;;;;;8.48;3.55;;;;;;;5.00;41.11;102029.78;5027817;28;20140;-76
2023/03/04 03:47:40;;;;;;;9.07;3.35;;;;;;;4.98;41.21;102027.16;5047661;28;20049;-75
2023/03/04 03:50:09;;;;;;;8.60;3.40;;;;;;;5.00;41.21;102033.38;5047658;28;20083;-76
2023/03/04 03:52:36;;;;;;;11.88;5.68;;;;;;;5.01;41.13;102023.41;5023858;28;20064;-75
2023/03/04 03:55:06;;;;;;;16.48;6.88;;;;;;;5.01;40.89;102027.00;5048764;28;20069;-76
2023/03/04 03:57:34;;;;;;;18.05;8.15;;;;;;;5.00;41.03;102019.81;5025170;28;20092;-76
2023/03/04 04:00:02;;;;;;;16.83;8.15;;;;;;;5.00;40.92;102019.81;5029179;28;20414;-76
2023/03/04 04:02:39;;;;;;;16.92;7.70;;;;;;;5.00;40.89;102027.97;5040931;28;20065;-77
2023/03/04 04:05:09;;;;;;;18.15;8.10;;;;;;;5.01;40.95;102021.59;5026367;28;20042;-76
2023/03/04 04:07:37;;;;;;;18.13;8.13;;;;;;;5.01;40.96;102027.00;5019340;28;20116;-76
2023/03/04 04:10:08;;;;;;;15.95;7.22;;;;;;;5.01;40.87;102018.88;5042902;28;20045;-76
2023/03/04 04:12:36;;;;;;;17.00;7.75;;;;;;;5.01;40.94;102018.00;5027297;28;20044;-76
2023/03/04 04:15:05;;;;;;;17.95;8.13;;;;;;;5.01;40.84;102027.00;5057645;28;20045;-76
2023/03/04 04:17:33;;;;;;;13.85;7.10;;;;;;;5.01;40.65;102020.72;5051750;28;20049;-76
2023/03/04 04:20:01;;;;;;;12.27;6.15;;;;;;;5.02;40.81;102022.47;5051379;28;20432;-77
2023/03/04 04:22:29;;;;;;;13.90;5.65;;;;;;;5.02;40.83;102023.34;5043941;28;20052;-76
2023/03/04 04:24:57;;;;;;;10.43;4.78;;;;;;;5.03;40.82;102016.09;5056307;28;20060;-77
2023/03/04 04:27:27;;;;;;;9.68;4.80;;;;;;;5.04;40.79;102016.03;5052018;28;20120;-76
2023/03/04 04:29:54;;;;;;;10.85;4.50;;;;;;;5.04;40.91;102012.44;5032917;28;20100;-76
2023/03/04 04:32:22;;;;;;;10.68;4.63;;;;;;;5.04;40.99;102016.03;5034114;28;20512;-76
2023/03/04 04:34:50;;;;;;;10.02;3.97;;;;;;;5.04;40.87;102018.75;5051965;28;20122;-76
2023/03/04 04:37:18;;;;;;;9.13;4.10;;;;;;;5.05;40.86;102019.59;5047891;28;20060;-77
2023/03/04 04:39:46;;;;;;;8.45;3.55;;;;;;;5.05;40.87;102023.19;5051010;28;20040;-76
2023/03/04 04:42:14;;;;;;;9.20;3.67;;;;;;;5.05;40.91;102019.59;5051593;28;20048;-76
2023/03/04 04:44:43;;;;;;;6.88;3.25;;;;;;;5.07;40.96;102015.88;5026887;28;20425;-76
2023/03/04 04:47:11;;;;;;;7.35;3.10;;;;;;;5.06;40.59;102022.25;5034216;28;20065;-76
2023/03/04 04:49:39;;;;;;;7.53;3.00;;;;;;;5.07;41.17;102015.88;5057611;28;20053;-76
2023/03/04 04:52:07;;;;;;;9.30;3.00;;;;;;;5.07;40.93;102029.44;5033362;28;20421;-76
2023/03/04 04:54:35;;;;;;;8.00;3.25;;;;;;;5.07;40.97;102024.00;5050156;28;20508;-75
2023/03/04 04:57:03;;;;;;;8.52;3.40;;;;;;;5.08;40.99;102025.78;5036475;28;20056;-76
2023/03/04 04:59:30;;;;;;;7.07;2.78;;;;;;;5.08;40.90;102024.91;5027513;28;20048;-76
2023/03/04 05:02:00;;;;;;;7.05;3.13;;;;;;;5.11;40.97;102027.47;5053470;28;20040;-76
2023/03/04 05:04:28;;;;;;;7.78;2.67;;;;;;;5.09;41.01;102019.41;5031390;28;20091;-76
2023/03/04 05:06:55;;;;;;;7.18;2.90;;;;;;;5.10;41.07;102025.72;5051062;28;20049;-77
2023/03/04 05:09:23;;;;;;;5.72;2.80;;;;;;;5.09;41.07;102026.66;5055117;28;20044;-77
2023/03/04 05:11:51;;;;;;;8.52;2.78;;;;;;;5.09;41.01;102030.25;5045098;28;20420;-76
2023/03/04 05:14:19;;;;;;;7.18;3.10;;;;;;;5.10;40.97;102025.72;5053129;28;20515;-76
2023/03/04 05:16:47;;;;;;;11.30;3.15;;;;;;;5.11;41.04;102024.75;5037612;28;20079;-76
2023/03/04 05:19:16;;;;;;;6.90;2.63;;;;;;;5.11;41.14;102024.75;5028950;28;20041;-77
2023/03/04 05:21:44;;;;;;;8.40;2.80;;;;;;;5.10;40.93;102026.59;5032298;28;20044;-76
2023/03/04 05:24:12;;;;;;;8.77;3.05;;;;;;;5.10;41.17;102023.00;5059972;28;20447;-76
2023/03/04 05:26:40;;;;;;;6.45;3.10;;;;;;;5.11;41.12;102030.19;5051340;28;20049;-77
2023/03/04 05:29:08;;;;;;;9.70;3.38;;;;;;;5.12;41.08;102029.25;5050130;28;20045;-77
2023/03/04 05:31:36;;;;;;;8.35;3.42;;;;;;;5.10;40.98;102023.88;5027825;28;20052;-77
2023/03/04 05:34:04;;;;;;;8.27;3.30;;;;;;;5.12;41.06;102023.81;5051077;28;20048;-76
2023/03/04 05:36:34;;;;;;;6.40;2.78;;;;;;;5.11;41.17;102025.66;5050333;28;20096;-77
2023/03/04 05:39:02;;;;;;;6.10;2.63;;;;;;;5.11;41.06;102031.06;5049519;28;20049;-77
2023/03/04 05:41:30;;;;;;;7.45;2.63;;;;;;;5.12;41.12;102032.84;5051102;28;20045;-76
2023/03/04 05:43:58;;;;;;;5.65;2.50;;;;;;;5.12;41.13;102023.81;5035047;28;20115;-76
2023/03/04 05:46:25;;;;;;;5.63;2.60;;;;;;;5.12;41.09;102027.41;5049740;28;20456;-76
2023/03/04 05:48:54;;;;;;;6.72;2.47;;;;;;;5.13;41.20;102034.56;5048518;28;20056;-76
2023/03/04 05:51:23;;;;;;;8.65;2.80;;;;;;;5.12;41.09;102035.56;5039512;28;20049;-75
2023/03/04 05:53:52;;;;;;;6.25;2.85;;;;;;;5.14;41.13;102030.03;5030684;28;20053;-76
2023/03/04 05:56:20;;;;;;;6.72;2.50;;;;;;;5.13;41.05;102031.88;5049168;28;20119;-76
2023/03/04 05:58:48;;;;;;;7.93;3.25;;;;;;;5.13;41.02;102036.44;5030663;28;20091;-76
2023/03/04 06:01:17;;;;;;;7.97;3.25;;;;;;;5.13;41.08;102029.16;5049910;28;20095;-77
2023/03/04 06:03:47;;;;;;;9.55;3.20;;;;;;;5.12;41.08;102035.56;5031321;28;20052;-76
2023/03/04 06:06:16;;;;;;;8.13;2.75;;;;;;;5.13;41.10;102036.44;5032545;28;20132;-77
2023/03/04 06:08:44;;;;;;;7.05;2.67;;;;;;;5.13;40.91;102036.44;5037401;28;20056;-76
2023/03/04 06:11:13;;;;;;;8.55;2.92;;;;;;;5.13;41.10;102037.28;5056752;28;20041;-76
2023/03/04 06:13:41;;;;;;;5.32;2.28;;;;;;;5.12;40.97;102038.28;5031403;28;20056;-76
2023/03/04 06:16:09;;;;;;;7.00;2.63;;;;;;;5.13;40.95;102040.00;5050776;28;20075;-76
2023/03/04 06:18:38;;;;;;;5.85;2.17;;;;;;;5.13;40.93;102042.72;5048632;28;20152;-76
2023/03/04 06:21:06;;;;;;;9.15;2.38;;;;;;;5.13;41.02;102042.72;5050636;28;20049;-76
2023/03/04 06:23:34;;;;;;;5.72;2.03;;;;;;;5.13;41.03;102048.16;5050423;28;20053;-76
2023/03/04 06:26:02;;;;;;;6.95;2.08;;;;;;;5.13;41.20;102052.72;5029823;28;20053;-76
2023/03/04 06:28:32;;;;;;;8.85;2.85;;;;;;;5.14;41.08;102057.16;5039569;28;20059;-76
2023/03/04 06:30:59;;;;;;;7.35;3.30;;;;;;;5.13;41.11;102055.44;5033221;28;20107;-75
2023/03/04 06:33:28;;;;;;;7.25;3.05;;;;;;;5.13;41.13;102052.72;5036501;28;20056;-75
2023/03/04 06:35:56;;;;;;;8.48;3.25;;;;;;;5.13;41.09;102055.44;5048947;28;20053;-76
2023/03/04 06:38:25;;;;;;;7.88;3.13;;;;;;;5.13;40.69;102059.00;5026941;28;20120;-75
2023/03/04 06:40:53;;;;;;;9.07;3.50;;;;;;;5.12;41.20;102062.69;5040272;28;20053;-75
2023/03/04 06:43:24;;;;;;;7.28;2.95;;;;;;;5.12;41.26;102057.25;5040333;28;20067;-75
2023/03/04 06:45:53;;;;;;;7.18;3.00;;;;;;;5.13;41.19;102060.88;5031495;28;20061;-75
2023/03/04 06:48:21;;;;;;;5.75;2.60;;;;;;;5.13;41.17;102063.56;5049733;28;20052;-75
2023/03/04 06:50:49;;;;;;;6.85;2.70;;;;;;;5.13;41.25;102066.28;5053942;28;20103;-75
2023/03/04 06:53:17;;;;;;;7.03;2.97;;;;;;;5.14;41.23;102068.03;5038824;28;20454;-75
2023/03/04 06:55:46;;;;;;;6.57;2.90;;;;;;;5.13;41.16;102069.84;5049122;28;20041;-75
2023/03/04 06:58:16;;;;;;;6.22;2.60;;;;;;;5.14;41.26;102076.16;5043962;28;20078;-75
2023/03/04 07:00:44;;;;;;;8.65;2.88;;;;;;;5.15;41.16;102075.22;5048428;28;20044;-75
2023/03/04 07:03:14;;;;;;;6.72;2.38;;;;;;;5.16;41.25;102076.97;5031276;28;20143;-75
2023/03/04 07:05:43;;;;;;;6.53;2.58;;;;;;;5.16;41.14;102074.28;5034338;28;20053;-75
2023/03/04 07:08:10;;;;;;;4.50;2.25;;;;;;;5.16;41.15;102071.56;5050872;28;20475;-75
2023/03/04 07:10:38;;;;;;;7.07;2.55;;;;;;;5.16;41.37;102075.16;5041129;28;20133;-75
2023/03/04 07:13:06;;;;;;;6.85;2.70;;;;;;;5.18;41.19;102072.41;5032585;28;20051;-75
2023/03/04 07:15:35;;;;;;;7.78;2.30;;;;;;;5.17;41.27;102070.59;5048240;28;21448;-76
2023/03/04 07:18:03;;;;;;;4.95;2.33;;;;;;;5.17;41.16;102071.53;5049150;28;20381;-75
2023/03/04 07:20:32;;;;;;;5.15;2.13;;;;;;;5.19;41.28;102077.78;5026707;28;21559;-76
2023/03/04 07:23:00;;;;;;;5.72;2.13;;;;;;;5.19;41.34;102075.06;5044885;28;20539;-76
2023/03/04 07:25:28;;;;;;;5.72;2.10;;;;;;;5.20;41.32;102076.81;5030090;28;20456;-76
2023/03/04 07:27:55;;;;;;;6.20;2.13;;;;;;;5.21;41.30;102083.13;5049273;28;20053;-76
2023/03/04 07:30:23;;;;;;;4.85;2.08;;;;;;;5.22;41.35;102079.44;5047445;28;20036;-76
2023/03/04 07:32:51;;;;;;;6.20;2.08;;;;;;;5.22;41.31;102083.03;5039377;28;20056;-76
2023/03/04 07:35:19;;;;;;;4.45;1.80;;;;;;;5.22;41.21;102084.88;5042203;28;20051;-76
2023/03/04 07:37:48;;;;;;;5.57;2.45;;;;;;;5.24;41.42;102085.69;5044142;28;20115;-76
2023/03/04 07:40:16;;;;;;;4.35;1.90;;;;;;;5.23;41.40;102087.53;5047894;28;20059;-76
2023/03/04 07:42:49;;;;;;;5.75;1.95;;;;;;;5.26;41.62;102091.94;5039972;28;20057;-76
2023/03/04 07:45:17;;;;;;;5.93;2.10;;;;;;;5.23;41.57;102092.94;5031582;28;20045;-76
2023/03/04 07:47:45;;;;;;;6.53;1.80;;;;;;;5.26;41.46;102091.94;5050237;28;20057;-76
2023/03/04 07:50:14;;;;;;;4.32;1.90;;;;;;;5.26;41.53;102098.25;5041391;28;20451;-76
2023/03/04 07:52:46;;;;;;;4.88;1.63;;;;;;;5.27;41.51;102101.84;5051662;28;20060;-76
2023/03/04 07:55:16;;;;;;;5.93;1.98;;;;;;;5.27;41.47;102107.28;5032376;28;20536;-76
2023/03/04 07:57:46;;;;;;;3.00;1.40;;;;;;;5.28;41.58;102099.06;5035488;28;20056;-76
2023/03/04 08:00:16;;;;;;;4.30;1.88;;;;;;;5.28;41.80;102096.34;5051486;28;20053;-76
2023/03/04 08:02:44;;;;;;;4.00;1.70;;;;;;;5.28;41.67;102100.91;5035017;28;20056;-76
2023/03/04 08:05:12;;;;;;;4.45;1.85;;;;;;;5.28;41.72;102099.06;5046177;28;20056;-75
2023/03/04 08:07:41;;;;;;;4.40;1.73;;;;;;;5.28;41.79;102103.63;5045126;28;20044;-76
2023/03/04 08:10:10;;;;;;;4.95;1.67;;;;;;;5.28;41.90;102106.31;5033657;28;20537;-76
2023/03/04 08:12:39;;;;;;;5.25;1.42;;;;;;;5.29;42.03;102108.09;5058221;28;20041;-75
2023/03/04 08:15:08;;;;;;;5.15;1.60;;;;;;;5.29;41.93;102105.38;5034078;28;20429;-75
2023/03/04 08:17:36;;;;;;;4.70;1.70;;;;;;;5.29;42.36;102103.50;5027576;28;20049;-76
2023/03/04 08:20:05;;;;;;;4.85;1.80;;;;;;;5.29;41.94;102103.50;5041643;28;20106;-75
2023/03/04 08:22:32;;;;;;;4.85;1.83;;;;;;;5.30;42.21;102105.28;5052331;28;20052;-76
2023/03/04 08:25:00;;;;;;;4.43;1.95;;;;;;;5.31;42.21;102103.44;5035091;28;20048;-76
2023/03/04 08:27:28;;;;;;;5.22;1.90;;;;;;;5.32;42.53;102102.50;5054202;28;20067;-77
2023/03/04 08:29:58;;;;;;;4.50;1.73;;;;;;;5.34;42.27;102097.00;5039916;28;20115;-76
2023/03/04 08:32:26;;;;;;;3.67;1.60;;;;;;;5.33;42.33;102098.84;5035549;28;20052;-76
2023/03/04 08:34:55;;;;;;;4.80;1.55;;;;;;;5.33;42.39;102100.66;5048940;28;20044;-76
2023/03/04 08:37:23;;;;;;;4.05;1.42;;;;;;;5.35;42.42;102102.38;5048098;28;20361;-76
2023/03/04 08:39:50;;;;;;;4.47;1.55;;;;;;;5.37;42.50;102108.63;5031852;28;20049;-76
2023/03/04 08:42:19;;;;;;;3.88;1.50;;;;;;;5.39;42.50;102108.53;5043091;28;20045;-77
2023/03/04 08:44:46;;;;;;;5.55;1.60;;;;;;;5.41;42.60;102112.06;5050676;28;20049;-76
2023/03/04 08:47:16;;;;;;;4.78;1.38;;;;;;;5.44;42.72;102114.66;5042912;28;20447;-76
2023/03/04 08:49:44;;;;;;;3.78;1.48;;;;;;;5.45;42.66;102105.56;5053888;28;20097;-76
2023/03/04 08:52:12;;;;;;;4.63;1.42;;;;;;;5.47;42.86;102112.66;5034899;28;20045;-76
2023/03/04 08:54:40;;;;;;;3.22;1.30;;;;;;;5.50;43.17;102107.09;5054356;28;20500;-76
2023/03/04 08:57:08;;;;;;;3.55;1.65;;;;;;;5.52;43.00;102102.47;5042695;28;20044;-76
2023/03/04 08:59:36;;;;;;;4.55;1.42;;;;;;;5.56;43.03;102105.91;5047426;28;20505;-76
2023/03/04 09:02:05;;;;;;;3.63;1.50;;;;;;;5.58;43.14;102099.47;5052201;28;20068;-76
2023/03/04 09:04:35;;;;;;;4.53;1.75;;;;;;;5.63;43.16;102105.56;5041744;28;20069;-76
2023/03/04 09:07:03;;;;;;;5.22;1.80;;;;;;;5.65;43.11;102105.47;5051502;28;20501;-76
2023/03/04 09:09:31;;;;;;;4.45;1.60;;;;;;;5.68;42.96;102106.22;5051387;28;20053;-76
2023/03/04 09:12:01;;;;;;;2.67;1.13;;;;;;;5.72;43.11;102104.22;5050682;28;20306;-76
2023/03/04 09:14:31;;;;;;;4.03;1.40;;;;;;;5.75;43.13;102105.94;5040730;28;20090;-77
2023/03/04 09:16:59;;;;;;;4.10;1.27;;;;;;;5.78;42.94;102103.09;5051454;28;20053;-76
2023/03/04 09:19:27;;;;;;;3.80;1.55;;;;;;;5.80;43.14;102112.91;5030980;28;20172;-76
2023/03/04 09:21:58;;;;;;;2.53;1.42;;;;;;;5.83;42.79;102106.44;5040627;28;20128;-76
2023/03/04 09:24:26;;;;;;;3.28;1.27;;;;;;;5.85;42.88;102110.88;5032709;28;20107;-76
2023/03/04 09:26:54;;;;;;;2.67;1.17;;;;;;;5.88;42.68;102107.09;5057678;28;20068;-76
2023/03/04 09:29:23;;;;;;;2.78;1.15;;;;;;;5.90;42.64;102107.91;5048712;28;20270;-76
2023/03/04 09:31:51;;;;;;;5.55;1.40;;;;;;;5.92;42.70;102111.44;5053351;28;20048;-76
2023/03/04 09:34:19;;;;;;;2.72;1.15;;;;;;;5.94;42.65;102106.81;5062066;28;20056;-77
2023/03/04 09:36:47;;;;;;;2.75;1.00;;;;;;;5.95;42.72;102109.44;5054796;28;20045;-76
2023/03/04 09:39:19;;;;;;;3.17;1.23;;;;;;;5.97;42.78;102112.09;5042733;28;20053;-76
2023/03/04 09:41:51;;;;;;;4.63;1.42;;;;;;;5.98;42.96;102112.03;5050618;28;20124;-77
2023/03/04 09:44:24;;;;;;;2.85;1.15;;;;;;;5.99;43.24;102112.91;5050098;28;20057;-76
2023/03/04 09:46:55;;;;;;;3.20;1.35;;;;;;;5.98;42.95;102098.44;5040228;28;20053;-76
2023/03/04 09:49:24;;;;;;;3.92;1.27;;;;;;;6.02;43.24;102100.06;5051327;28;20041;-76
2023/03/04 09:51:58;;;;;;;3.30;1.48;;;;;;;6.04;43.28;102098.13;5040886;28;20048;-76
2023/03/04 09:54:48;;;;;;;2.20;1.00;;;;;;;6.06;43.48;102101.66;5030912;28;20106;-76
2023/03/04 09:57:27;;;;;;;4.25;1.23;;;;;;;6.07;43.63;102102.53;5030806;28;20136;-76
2023/03/04 10:00:06;;;;;;;2.92;1.10;;;;;;;6.09;43.47;102097.03;5049487;28;20049;-76
2023/03/04 10:02:46;;;;;;;4.97;1.30;;;;;;;6.08;43.61;102098.88;5046127;28;20045;-76
2023/03/04 10:05:19;;;;;;;3.10;1.20;;;;;;;6.11;43.34;102096.00;5040744;28;20052;-76
2023/03/04 10:07:56;;;;;;;2.72;1.23;;;;;;;6.10;43.47;102094.25;5033732;28;20083;-76
2023/03/04 10:10:29;;;;;;;3.75;1.25;;;;;;;6.13;43.50;102091.34;5031390;28;20473;-76
2023/03/04 10:12:58;;;;;;;2.95;1.02;;;;;;;6.14;43.32;102087.69;5046058;28;20037;-76
2023/03/04 10:15:34;;;;;;;2.63;1.35;;;;;;;6.18;43.62;102092.03;5048950;28;20505;-76
2023/03/04 10:18:07;;;;;;;3.28;0.90;;;;;;;6.18;43.49;102089.31;5049569;28;20047;-75
2023/03/04 10:20:46;;;;;;;3.50;1.38;;;;;;;6.22;43.91;102092.75;5030631;28;20044;-75
2023/03/04 10:23:18;;;;;;;2.38;1.20;;;;;;;6.23;43.38;102086.34;5050838;28;20036;-77
2023/03/04 10:25:52;;;;;;;3.88;1.20;;;;;;;6.25;43.50;102081.72;5049294;28;20048;-74
2023/03/04 10:28:25;;;;;;;3.30;1.15;;;;;;;6.27;43.63;102077.97;5046423;28;20045;-76
2023/03/04 10:30:59;;;;;;;4.35;1.38;;;;;;;6.27;43.60;102075.25;5038124;28;20420;-74
2023/03/04 10:33:30;;;;;;;3.83;1.25;;;;;;;6.31;43.46;102073.25;5049984;28;20409;-74
2023/03/04 10:36:02;;;;;;;4.32;1.10;;;;;;;6.34;43.67;102068.56;5029939;28;20096;-75
2023/03/04 10:38:33;;;;;;;2.77;1.00;;;;;;;6.35;43.45;102072.16;5045689;28;20377;-75
2023/03/04 10:41:13;;;;;;;2.90;1.23;;;;;;;6.42;43.80;102070.88;5045526;28;20279;-76
2023/03/04 10:43:49;;;;;;;2.75;1.00;;;;;;;6.44;43.57;102066.25;5038340;28;20043;-75
2023/03/04 10:46:17;;;;;;;2.78;1.08;;;;;;;6.48;43.26;102058.78;5033251;28;20091;-75
2023/03/04 10:48:46;;;;;;;2.55;1.15;;;;;;;6.51;43.43;102058.66;5049526;28;20607;-75
2023/03/04 10:51:19;;;;;;;3.15;1.10;;;;;;;6.54;43.47;102062.06;5042350;28;20048;-75
2023/03/04 10:53:50;;;;;;;2.38;1.10;;;;;;;6.57;43.16;102061.03;5050358;28;20049;-75
2023/03/04 10:56:38;;;;;;;2.83;1.08;;;;;;;6.59;43.42;102056.41;5046397;28;20509;-75
2023/03/04 10:59:35;;;;;;;4.10;1.52;;;;;;;6.58;43.31;102049.22;5030480;28;20044;-75
2023/03/04 11:02:15;;;;;;;3.33;1.13;;;;;;;6.65;43.21;102056.09;5002611;28;20049;-75
2023/03/04 11:04:51;;;;;;;4.82;1.30;;;;;;;6.68;43.34;102056.81;5038547;28;20052;-75
2023/03/04 11:07:20;;;;;;;3.50;1.42;;;;;;;6.69;43.21;102047.69;5055340;28;20455;-75
2023/03/04 11:09:48;;;;;;;3.25;1.23;;;;;;;6.71;43.15;102051.19;5032191;28;20049;-75
2023/03/04 11:12:21;;;;;;;3.67;1.00;;;;;;;6.75;43.22;102050.13;5035536;28;20044;-75
2023/03/04 11:14:50;;;;;;;3.90;1.10;;;;;;;6.75;43.01;102046.53;5035702;28;20084;-75
2023/03/04 11:17:24;;;;;;;3.67;1.15;;;;;;;6.79;43.04;102043.53;5049772;28;20091;-75
2023/03/04 11:19:58;;;;;;;1.60;0.95;;;;;;;6.80;42.93;102048.03;5054414;28;20083;-75
2023/03/04 11:22:28;;;;;;;2.15;1.10;;;;;;;6.80;42.88;102044.44;5049658;28;20628;-75
2023/03/04 11:25:00;;;;;;;3.10;1.25;;;;;;;6.82;42.84;102047.94;5051100;28;20103;-75
2023/03/04 11:27:44;;;;;;;2.58;1.23;;;;;;;6.82;42.97;102039.78;5053783;28;20041;-75
2023/03/04 11:30:34;;;;;;;3.50;1.42;;;;;;;6.82;42.98;102037.06;5052309;28;20057;-75
2023/03/04 11:33:12;;;;;;;1.50;1.02;;;;;;;6.83;42.95;102033.38;5051244;28;20464;-75
2023/03/04 11:35:48;;;;;;;2.22;1.20;;;;;;;6.85;42.84;102027.88;5031705;28;20103;-75
2023/03/04 11:38:19;;;;;;;2.20;1.00;;;;;;;6.87;43.00;102023.19;5041207;28;20041;-75
2023/03/04 11:40:52;;;;;;;3.22;1.20;;;;;;;6.89;42.98;102024.00;5046242;28;20136;-75
2023/03/04 11:43:28;;;;;;;3.50;1.27;;;;;;;6.91;42.85;102022.97;5043245;28;20052;-75